This is the latest recevied weather packets stored in our database for station/object G4ZMG. If no packets are shown the sender has not sent any weather packets the latest 10 day(s).
| Time | Temp. | Humidity | Pressure | Rain* | Wind** | Luminosity | Snow |
|---|---|---|---|---|---|---|---|
| 1777638610 | 21.11° C | 59% | 1017.8 hPa | 0 mm | - | 394 W/m² | - |
| 1777638011 | 21.67° C | 58% | 1017.8 hPa | 0 mm | - | 489 W/m² | - |
| 1777637447 | 21.11° C | 59% | 1017.8 hPa | 0 mm | - | 779 W/m² | - |
| 1777636835 | 20.56° C | 59% | 1017.8 hPa | 0 mm | - | 594 W/m² | - |
| 1777636222 | 20.56° C | 60% | 1017.9 hPa | 0 mm | - | 504 W/m² | - |
| 1777635602 | 20.56° C | 59% | 1017.8 hPa | 0 mm | - | 490 W/m² | - |
| 1777635040 | 20° C | 60% | 1017.8 hPa | 0 mm | - | 545 W/m² | - |
| 1777634433 | 20.56° C | 59% | 1018 hPa | 0 mm | - | 707 W/m² | - |
| 1777633822 | 20° C | 61% | 1017.9 hPa | 0 mm | - | 596 W/m² | - |
| 1777633224 | 20.56° C | 58% | 1018 hPa | 0 mm | - | 531 W/m² | - |
| 1777632608 | 20° C | 58% | 1018.1 hPa | 0 mm | - | 742 W/m² | - |
| 1777632040 | 20° C | 58% | 1018.2 hPa | 0 mm | - | 601 W/m² | - |
| 1777631432 | 19.44° C | 56% | 1018.3 hPa | 0 mm | - | 515 W/m² | - |
| 1777630823 | 19.44° C | 56% | 1018.2 hPa | 0 mm | - | 793 W/m² | - |
| 1777630211 | 19.44° C | 55% | 1018.3 hPa | 0 mm | - | 596 W/m² | - |
| 1777629605 | 18.89° C | 58% | 1018.2 hPa | 0 mm | - | 838 W/m² | - |
| 1777629046 | 17.78° C | 58% | 1018.3 hPa | 0 mm | - | 526 W/m² | - |
| 1777628440 | 17.78° C | 58% | 1018.3 hPa | 0 mm | - | 612 W/m² | - |
| 1777627823 | 18.33° C | 56% | 1018.3 hPa | 0 mm | - | 383 W/m² | - |
| 1777627205 | 17.78° C | 55% | 1018.2 hPa | 0 mm | - | 399 W/m² | - |
| 1777626642 | 17.78° C | 56% | 1018.3 hPa | 0 mm | - | 657 W/m² | - |
| 1777626024 | 17.78° C | 54% | 1018.4 hPa | 0 mm | - | 606 W/m² | - |
| 1777625411 | 17.22° C | 55% | 1018.3 hPa | 0 mm | - | 548 W/m² | - |
| 1777624839 | 16.67° C | 56% | 1018.5 hPa | 0 mm | - | 527 W/m² | - |
| 1777624228 | 16.67° C | 54% | 1018.3 hPa | 0 mm | - | 492 W/m² | - |
* Rain latest hour (hover to see other rain measurements)
** Current wind speed in m/s (hover to see current wind gust speed)